Terminal Aerodrome Forecast
Issued by NWS

Home | Current Version | Previous Version | Text Only | Print | Product List | Glossary On
Versions: 1 2 3 4 5 6 7 8 9 10 11 12 13 14 15 16 17 18 19 20 21 22 23 24 25
000
FTAK31 PANC 091728
TAFADQ
TAF
PADQ 091728Z 0918/1018 29005KT 5SM -SHRA SCT009 BKN015 OVC022
     FM092000 08010KT 3SM -RA BKN009 OVC015
     FM100200 05008KT 5SM -RA OVC015
     FM101000 34010KT P6SM VCSH SCT030 OVC050=

USA.gov is the U.S. government's official web portal to all federal, state and local government web resources and services.